createdAt,value
2023-12-17T00:01:47.557Z,0.43
2023-12-17T00:06:50.527Z,1.50
2023-12-17T00:11:54.228Z,3.13
2023-12-17T00:16:57.075Z,0.70
2023-12-17T00:22:00.170Z,2.08
2023-12-17T00:27:03.559Z,1.00
2023-12-17T00:32:07.216Z,0.85
2023-12-17T00:37:10.135Z,0.63
2023-12-17T00:42:13.369Z,0.60
2023-12-17T00:47:16.278Z,1.38
2023-12-17T00:52:22.241Z,1.42
2023-12-17T00:57:26.856Z,1.13
2023-12-17T01:02:30.257Z,1.83
2023-12-17T01:07:33.521Z,1.30
2023-12-17T01:12:37.206Z,1.33
2023-12-17T01:17:40.661Z,1.13
2023-12-17T01:22:44.043Z,0.20
2023-12-17T01:27:47.491Z,1.25
2023-12-17T01:32:50.615Z,0.70
2023-12-17T01:37:53.423Z,0.95
2023-12-17T01:42:57.896Z,0.98
2023-12-17T01:48:01.411Z,1.23
2023-12-17T01:53:04.604Z,1.58
2023-12-17T01:58:10.208Z,0.63
2023-12-17T02:03:13.848Z,0.40
2023-12-17T02:08:17.733Z,1.52
2023-12-17T02:13:21.610Z,0.95
2023-12-17T02:18:25.096Z,0.68
2023-12-17T02:23:28.300Z,0.52
2023-12-17T02:28:32.510Z,1.17
2023-12-17T02:33:35.671Z,0.52
2023-12-17T02:38:38.802Z,2.42
2023-12-17T02:43:42.541Z,0.85
2023-12-17T02:48:45.659Z,1.90
2023-12-17T02:53:49.272Z,1.58
2023-12-17T02:58:54.250Z,0.45
2023-12-17T03:03:57.763Z,0.88
2023-12-17T03:09:01.334Z,1.10
2023-12-17T03:14:12.233Z,0.93
2023-12-17T03:19:15.635Z,1.80
2023-12-17T03:24:19.307Z,1.23
2023-12-17T03:29:22.636Z,1.60
2023-12-17T03:34:27.566Z,0.30
2023-12-17T03:39:31.547Z,0.52
2023-12-17T03:44:37.542Z,2.70
2023-12-17T03:49:41.954Z,0.68
2023-12-17T03:54:45.396Z,7.03
2023-12-17T03:59:50.338Z,2.15
2023-12-17T04:04:53.825Z,1.55
2023-12-17T04:10:03.153Z,4.20
2023-12-17T04:15:11.311Z,6.10
2023-12-17T04:20:15.435Z,2.10
2023-12-17T04:25:18.633Z,0.68
2023-12-17T04:30:22.269Z,1.17
2023-12-17T04:35:25.656Z,0.65
2023-12-17T04:40:28.831Z,4.45
2023-12-17T04:45:32.145Z,5.82
2023-12-17T04:50:36.318Z,3.92
2023-12-17T04:55:40.359Z,2.50
2023-12-17T05:00:44.852Z,1.95
2023-12-17T05:05:48.474Z,2.03
2023-12-17T05:10:53.344Z,1.63
2023-12-17T05:15:59.793Z,4.88
2023-12-17T05:21:08.032Z,3.15
2023-12-17T05:26:11.376Z,4.47
2023-12-17T05:31:14.882Z,2.35
2023-12-17T05:36:19.817Z,5.50
2023-12-17T05:41:25.747Z,4.38
2023-12-17T05:46:28.625Z,6.57
2023-12-17T05:51:32.726Z,4.93
2023-12-17T05:56:43.833Z,7.72
2023-12-17T06:01:47.091Z,6.53
2023-12-17T06:06:50.203Z,10.32
2023-12-17T06:11:56.773Z,7.90
2023-12-17T06:17:00.407Z,7.15
2023-12-17T06:22:04.249Z,4.13
2023-12-17T06:27:08.608Z,14.15
2023-12-17T06:32:13.627Z,14.82
2023-12-17T06:37:16.547Z,7.85
2023-12-17T06:42:20.870Z,11.57
2023-12-17T06:47:28.467Z,10.77
2023-12-17T06:52:32.040Z,8.82
2023-12-17T06:57:37.251Z,7.90
2023-12-17T07:02:40.430Z,7.72
2023-12-17T07:07:48.795Z,7.32
2023-12-17T07:12:53.244Z,6.25
2023-12-17T07:17:56.181Z,7.95
2023-12-17T07:22:59.560Z,8.60
2023-12-17T07:28:03.657Z,9.65
2023-12-17T07:33:08.215Z,8.93
2023-12-17T07:38:11.487Z,5.22
2023-12-17T07:43:16.099Z,5.57
2023-12-17T07:48:19.531Z,7.05
2023-12-17T07:53:23.307Z,9.05
2023-12-17T07:58:26.811Z,9.15
2023-12-17T08:03:29.955Z,5.57
2023-12-17T08:08:33.855Z,5.38
2023-12-17T08:13:38.677Z,6.10
2023-12-17T08:18:41.761Z,4.05
2023-12-17T08:23:45.438Z,8.02
2023-12-17T08:28:50.641Z,9.82
2023-12-17T08:33:55.218Z,8.23
2023-12-17T08:38:58.370Z,6.88
2023-12-17T08:44:03.278Z,9.27
2023-12-17T08:49:07.737Z,11.23
2023-12-17T08:54:15.102Z,8.07
2023-12-17T08:59:17.970Z,5.30
2023-12-17T09:04:21.565Z,5.18
2023-12-17T09:09:25.589Z,6.18
2023-12-17T09:14:28.457Z,2.85
2023-12-17T09:19:31.486Z,4.43
2023-12-17T09:24:35.556Z,10.45
2023-12-17T09:29:38.554Z,3.75
2023-12-17T09:34:42.138Z,7.15
2023-12-17T09:39:47.345Z,6.00
2023-12-17T09:44:50.703Z,4.68
2023-12-17T09:49:55.088Z,11.50
2023-12-17T09:54:58.787Z,12.35
2023-12-17T10:00:02.328Z,12.05
2023-12-17T10:05:08.661Z,8.73
2023-12-17T10:10:12.789Z,5.35
2023-12-17T10:15:16.130Z,6.32
2023-12-17T10:20:20.633Z,6.13
2023-12-17T10:25:27.872Z,4.03
2023-12-17T10:30:34.920Z,5.07
2023-12-17T10:35:38.677Z,5.65
2023-12-17T10:40:43.372Z,4.38
2023-12-17T10:45:49.217Z,5.55
2023-12-17T10:50:53.076Z,6.47
2023-12-17T10:55:57.862Z,9.02
2023-12-17T11:01:01.163Z,8.07
2023-12-17T11:06:07.067Z,8.48
2023-12-17T11:11:10.068Z,6.32
2023-12-17T11:16:26.201Z,3.97
2023-12-17T11:21:29.889Z,5.57
2023-12-17T11:26:46.117Z,8.65
2023-12-17T11:31:49.897Z,2.42
2023-12-17T11:36:54.056Z,6.45
2023-12-17T11:41:59.237Z,5.47
2023-12-17T11:47:02.281Z,8.82
2023-12-17T11:52:16.842Z,6.18
2023-12-17T11:57:25.373Z,7.97
2023-12-17T12:02:29.542Z,5.13
2023-12-17T12:07:34.335Z,6.65
2023-12-17T12:12:37.970Z,4.55
2023-12-17T12:17:43.925Z,6.72
2023-12-17T12:22:49.576Z,3.53
2023-12-17T12:27:56.907Z,4.97
2023-12-17T12:33:14.973Z,4.15
2023-12-17T12:38:22.266Z,5.70
2023-12-17T12:43:26.896Z,5.13
2023-12-17T12:48:30.720Z,5.90
2023-12-17T12:53:34.821Z,8.55
2023-12-17T12:58:38.700Z,5.85
2023-12-17T13:03:42.023Z,9.60
2023-12-17T13:08:45.985Z,8.45
2023-12-17T13:13:50.056Z,10.35
2023-12-17T13:18:58.443Z,6.43
2023-12-17T13:24:08.556Z,6.65
2023-12-17T13:29:14.007Z,9.30
2023-12-17T13:34:21.000Z,6.55
2023-12-17T13:39:26.186Z,8.85
2023-12-17T13:44:29.002Z,4.65
2023-12-17T13:49:38.070Z,10.48
2023-12-17T13:54:42.476Z,6.70
2023-12-17T13:59:52.339Z,7.18
2023-12-17T14:04:57.464Z,5.53
2023-12-17T14:10:01.329Z,7.45
2023-12-17T14:15:07.645Z,9.65
2023-12-17T14:20:14.339Z,4.97
2023-12-17T14:25:23.271Z,10.38
2023-12-17T14:30:26.588Z,7.25
2023-12-17T14:35:30.440Z,18.25
2023-12-17T14:40:34.447Z,11.15
2023-12-17T14:45:37.798Z,9.70
2023-12-17T14:50:40.969Z,7.47
2023-12-17T14:55:44.610Z,3.65
2023-12-17T15:00:47.769Z,3.78
2023-12-17T15:05:51.294Z,5.18
2023-12-17T15:10:55.048Z,4.07
2023-12-17T15:15:58.080Z,4.30
2023-12-17T15:21:01.202Z,5.32
2023-12-17T15:26:05.328Z,5.25
2023-12-17T15:31:13.761Z,7.80
2023-12-17T15:36:19.864Z,4.78
2023-12-17T15:41:24.781Z,6.43
2023-12-17T15:46:27.933Z,6.90
2023-12-17T15:51:31.029Z,4.30
2023-12-17T15:56:34.534Z,6.70
2023-12-17T16:01:37.619Z,6.40
2023-12-17T16:06:41.691Z,3.05
2023-12-17T16:11:46.408Z,5.57
2023-12-17T16:16:50.040Z,6.05
2023-12-17T16:21:53.600Z,6.50
2023-12-17T16:26:57.226Z,7.85
2023-12-17T16:32:00.156Z,2.90
2023-12-17T16:37:03.901Z,6.00
2023-12-17T16:42:07.081Z,4.18
2023-12-17T16:47:10.077Z,6.70
2023-12-17T16:52:13.229Z,6.53
2023-12-17T16:57:16.830Z,7.10
2023-12-17T17:02:20.577Z,5.97
2023-12-17T17:07:23.576Z,6.68
2023-12-17T17:12:27.410Z,6.57
2023-12-17T17:17:30.427Z,5.85
2023-12-17T17:22:33.445Z,4.90
2023-12-17T17:27:37.021Z,4.40
2023-12-17T17:32:40.522Z,3.65
2023-12-17T17:37:43.997Z,4.50
2023-12-17T17:42:47.536Z,7.22
2023-12-17T17:47:50.580Z,7.15
2023-12-17T17:52:53.531Z,6.63
2023-12-17T17:57:57.834Z,5.68
2023-12-17T18:03:01.352Z,5.72
2023-12-17T18:08:05.078Z,3.78
2023-12-17T18:13:08.395Z,4.25
2023-12-17T18:18:11.530Z,6.70
2023-12-17T18:23:15.713Z,3.47
2023-12-17T18:28:19.144Z,7.05
2023-12-17T18:33:22.406Z,4.90
2023-12-17T18:38:25.327Z,5.15
2023-12-17T18:43:28.314Z,5.03
2023-12-17T18:48:31.378Z,4.40
2023-12-17T18:53:35.926Z,5.40
2023-12-17T18:58:39.037Z,2.10
2023-12-17T19:03:43.935Z,4.30
2023-12-17T19:08:48.036Z,4.18
2023-12-17T19:13:51.732Z,3.40
2023-12-17T19:18:55.408Z,3.72
2023-12-17T19:23:58.387Z,5.22
2023-12-17T19:29:02.818Z,5.55
2023-12-17T19:34:05.995Z,3.80
2023-12-17T19:39:09.713Z,4.85
2023-12-17T19:44:13.264Z,4.68
2023-12-17T19:49:17.234Z,3.10
2023-12-17T19:54:20.684Z,4.20
2023-12-17T19:59:23.793Z,4.95
2023-12-17T20:04:26.702Z,4.18
2023-12-17T20:09:30.304Z,5.18
2023-12-17T20:14:33.170Z,5.00
2023-12-17T20:19:36.254Z,6.03
2023-12-17T20:24:39.650Z,5.40
2023-12-17T20:29:45.041Z,5.63
2023-12-17T20:34:47.930Z,6.75
2023-12-17T20:39:51.331Z,4.82
2023-12-17T20:44:54.703Z,4.70
2023-12-17T20:49:58.158Z,5.28
2023-12-17T20:55:07.022Z,3.50
2023-12-17T21:00:11.398Z,5.55
2023-12-17T21:05:15.462Z,5.68
2023-12-17T21:10:23.154Z,6.55
2023-12-17T21:15:26.502Z,4.15
2023-12-17T21:20:32.071Z,4.65
2023-12-17T21:25:35.341Z,5.05
2023-12-17T21:30:38.500Z,5.55
2023-12-17T21:35:41.543Z,7.10
2023-12-17T21:40:45.063Z,3.67
2023-12-17T21:45:48.098Z,5.90
2023-12-17T21:50:51.757Z,7.40
2023-12-17T21:55:55.206Z,7.00
2023-12-17T22:00:58.757Z,5.63
2023-12-17T22:06:02.766Z,5.95
2023-12-17T22:11:06.029Z,6.55
2023-12-17T22:16:16.461Z,5.95
2023-12-17T22:21:20.700Z,5.20
2023-12-17T22:26:25.646Z,3.72
2023-12-17T22:31:29.302Z,6.05
2023-12-17T22:36:33.162Z,5.35
2023-12-17T22:41:44.076Z,7.38
2023-12-17T22:46:47.621Z,6.13
2023-12-17T22:51:51.209Z,1.73
2023-12-17T22:56:56.260Z,8.40
2023-12-17T23:01:59.841Z,5.60
2023-12-17T23:07:03.177Z,5.38
2023-12-17T23:12:07.906Z,8.48
2023-12-17T23:17:11.500Z,8.10
2023-12-17T23:22:15.118Z,2.80
2023-12-17T23:27:19.169Z,6.75
2023-12-17T23:32:29.904Z,4.57
2023-12-17T23:37:34.377Z,3.55
2023-12-17T23:42:38.782Z,9.45
2023-12-17T23:47:43.133Z,8.45
2023-12-17T23:52:46.791Z,5.22
2023-12-17T23:57:51.142Z,8.80
